Time;durP1;ratioP1;P1;durP2;ratioP2;P2;SDS_P1;SDS_P2;PMS_P1;PMS_P2;Temp;Humidity;BMP_temperature;BMP_pressure;BME280_temperature;BME280_humidity;BME280_pressure;Samples;Min_cycle;Max_cycle;Signal;HPM_P1;HPM_P2
2023/05/12 00:00:56;;;;;;;8.68;4.20;;;;;;;7.46;100.00;99210.06;5157316;27;20047;-60
2023/05/12 00:03:22;;;;;;;9.20;4.82;;;;;;;7.42;100.00;99205.63;5157311;27;20324;-57
2023/05/12 00:05:48;;;;;;;13.95;4.88;;;;;;;7.34;100.00;99201.91;5157426;27;20058;-63
2023/05/12 00:08:14;;;;;;;8.88;4.40;;;;;;;7.31;100.00;99192.47;5157386;27;20054;-57
2023/05/12 00:10:40;;;;;;;9.38;4.93;;;;;;;7.27;100.00;99191.56;5160764;27;20057;-55
2023/05/12 00:13:07;;;;;;;8.52;4.72;;;;;;;7.34;100.00;99198.38;5160897;27;20051;-62
2023/05/12 00:15:33;;;;;;;12.23;5.13;;;;;;;7.29;100.00;99197.44;5161244;27;20057;-57
2023/05/12 00:17:59;;;;;;;9.05;4.60;;;;;;;7.24;100.00;99194.97;5160684;27;20047;-63
2023/05/12 00:20:25;;;;;;;8.38;4.57;;;;;;;7.24;100.00;99186.78;5160652;27;20046;-62
2023/05/12 00:22:51;;;;;;;8.75;4.85;;;;;;;7.30;100.00;99185.44;5160866;27;20437;-65
2023/05/12 00:25:17;;;;;;;15.15;4.60;;;;;;;7.21;100.00;99183.94;5160622;27;20062;-64
2023/05/12 00:27:43;;;;;;;9.63;4.47;;;;;;;7.24;100.00;99186.00;5160846;27;20055;-59
2023/05/12 00:30:10;;;;;;;13.02;5.43;;;;;;;7.25;100.00;99177.47;5160867;27;20061;-55
2023/05/12 00:32:36;;;;;;;7.43;4.53;;;;;;;7.22;100.00;99191.00;5160693;27;20051;-59
2023/05/12 00:35:03;;;;;;;10.50;4.95;;;;;;;7.23;100.00;99193.38;5160564;27;20069;-64
2023/05/12 00:37:29;;;;;;;9.85;5.13;;;;;;;7.17;100.00;99191.22;5160369;27;20446;-59
2023/05/12 00:39:55;;;;;;;11.30;5.65;;;;;;;7.20;100.00;99196.00;5160547;27;20057;-60
2023/05/12 00:42:21;;;;;;;7.57;5.07;;;;;;;7.21;100.00;99192.94;5160428;27;20082;-62
2023/05/12 00:44:47;;;;;;;11.70;4.90;;;;;;;7.16;100.00;99197.81;5160752;27;20046;-65
2023/05/12 00:47:13;;;;;;;11.57;4.85;;;;;;;7.13;100.00;99204.75;5160509;27;20379;-63
2023/05/12 00:49:41;;;;;;;15.77;4.93;;;;;;;7.14;100.00;99192.69;5160717;27;20047;-56
2023/05/12 00:52:08;;;;;;;8.93;5.18;;;;;;;7.06;100.00;99210.78;5160118;27;20053;-59
2023/05/12 00:54:35;;;;;;;8.65;4.97;;;;;;;6.98;100.00;99199.97;5160112;27;20518;-65
2023/05/12 00:57:01;;;;;;;11.40;5.03;;;;;;;7.10;100.00;99202.72;5160437;27;20065;-58
2023/05/12 00:59:28;;;;;;;7.22;4.50;;;;;;;7.09;100.00;99201.09;5160260;27;20198;-65
2023/05/12 01:01:54;;;;;;;8.48;4.28;;;;;;;7.09;100.00;99198.38;5160264;27;20061;-58
2023/05/12 01:04:20;;;;;;;9.82;4.53;;;;;;;7.08;100.00;99197.56;5160162;27;20114;-65
2023/05/12 01:06:53;;;;;;;5.70;4.35;;;;;;;7.09;100.00;99198.38;5160199;27;20437;-60
2023/05/12 01:09:20;;;;;;;10.18;5.35;;;;;;;6.99;100.00;99188.72;5159891;27;20050;-59
2023/05/12 01:11:46;;;;;;;8.23;4.90;;;;;;;7.03;100.00;99178.75;5160304;27;20054;-54
2023/05/12 01:14:12;;;;;;;9.13;4.70;;;;;;;6.88;100.00;99173.94;5159980;27;20141;-57
2023/05/12 01:16:42;;;;;;;10.40;4.53;;;;;;;6.89;100.00;99167.34;5160263;27;20047;-56
2023/05/12 01:19:14;;;;;;;7.45;4.55;;;;;;;6.90;100.00;99155.34;5159922;27;20061;-56
2023/05/12 01:21:40;;;;;;;6.95;4.35;;;;;;;6.92;100.00;99158.50;5158452;27;20047;-58
2023/05/12 01:24:08;;;;;;;8.50;4.85;;;;;;;6.91;100.00;99172.47;5159971;27;20047;-56
2023/05/12 01:26:34;;;;;;;7.18;4.85;;;;;;;6.95;100.00;99165.22;5159861;27;20373;-62
2023/05/12 01:29:03;;;;;;;10.45;5.18;;;;;;;6.92;100.00;99169.41;5159917;27;20138;-64
2023/05/12 01:31:29;;;;;;;11.75;4.80;;;;;;;6.87;100.00;99161.47;5159643;27;20118;-58
2023/05/12 01:33:55;;;;;;;9.25;5.25;;;;;;;6.87;100.00;99163.41;5159888;27;20146;-59
2023/05/12 01:36:21;;;;;;;8.90;4.50;;;;;;;6.88;100.00;99165.78;5159427;27;20070;-56
2023/05/12 01:38:47;;;;;;;7.78;4.95;;;;;;;6.87;100.00;99153.28;5159781;27;20047;-57
2023/05/12 01:41:13;;;;;;;10.18;5.38;;;;;;;6.79;100.00;99162.34;5159327;27;20051;-54
2023/05/12 01:43:40;;;;;;;8.00;4.70;;;;;;;6.80;100.00;99163.97;5159848;27;20188;-54
2023/05/12 01:46:05;;;;;;;7.47;5.22;;;;;;;6.71;100.00;99166.78;5159257;27;20046;-54
2023/05/12 01:48:32;;;;;;;9.00;4.95;;;;;;;6.75;100.00;99164.19;5159486;27;20209;-57
2023/05/12 01:50:59;;;;;;;7.38;5.13;;;;;;;6.70;100.00;99162.47;5159211;27;20472;-64
2023/05/12 01:53:24;;;;;;;10.05;5.53;;;;;;;6.67;100.00;99167.81;5159475;27;20046;-55
2023/05/12 01:55:50;;;;;;;6.65;4.20;;;;;;;6.67;100.00;99162.38;5159464;27;20085;-56
2023/05/12 01:58:18;;;;;;;7.80;4.90;;;;;;;6.68;100.00;99161.22;5159223;27;20058;-54
2023/05/12 02:00:44;;;;;;;10.30;5.07;;;;;;;6.65;100.00;99165.41;5159178;27;20400;-56
2023/05/12 02:03:10;;;;;;;8.23;4.57;;;;;;;6.65;100.00;99159.16;5158940;27;20133;-55
2023/05/12 02:05:36;;;;;;;10.82;5.68;;;;;;;6.66;100.00;99160.75;5159376;27;20049;-54
2023/05/12 02:08:03;;;;;;;7.43;5.43;;;;;;;6.65;100.00;99164.63;5159283;27;20051;-60
2023/05/12 02:10:29;;;;;;;7.22;5.05;;;;;;;6.60;100.00;99162.91;5159331;27;20336;-54
2023/05/12 02:12:55;;;;;;;10.13;5.07;;;;;;;6.64;100.00;99168.50;5159083;27;20439;-62
2023/05/12 02:15:21;;;;;;;9.30;4.82;;;;;;;6.63;100.00;99167.69;5159441;27;20046;-62
2023/05/12 02:17:49;;;;;;;9.50;5.40;;;;;;;6.61;100.00;99167.22;5159032;27;20047;-63
2023/05/12 02:20:15;;;;;;;6.70;5.05;;;;;;;6.62;100.00;99160.63;5158892;27;20051;-59
2023/05/12 02:22:40;;;;;;;8.90;5.15;;;;;;;6.60;100.00;99177.34;5158805;27;20115;-65
2023/05/12 02:25:07;;;;;;;6.63;4.93;;;;;;;6.62;100.00;99168.00;5158855;27;20078;-64
2023/05/12 02:27:33;;;;;;;7.10;4.75;;;;;;;6.62;100.00;99165.28;5159003;27;20054;-63
2023/05/12 02:29:59;;;;;;;12.10;5.70;;;;;;;6.61;100.00;99161.78;5158693;27;20461;-58
2023/05/12 02:32:26;;;;;;;10.88;5.47;;;;;;;6.65;100.00;99175.50;5158495;27;20050;-60
2023/05/12 02:34:54;;;;;;;10.45;4.85;;;;;;;6.58;100.00;99170.63;5158535;27;20046;-56
2023/05/12 02:37:19;;;;;;;10.38;5.50;;;;;;;6.63;100.00;99173.16;5158938;27;20057;-62
2023/05/12 02:39:45;;;;;;;8.85;5.40;;;;;;;6.67;100.00;99171.31;5158524;27;20070;-67
2023/05/12 02:42:11;;;;;;;9.13;5.30;;;;;;;6.76;100.00;99168.47;5158861;27;20095;-64
2023/05/12 02:44:37;;;;;;;8.35;5.13;;;;;;;6.83;100.00;99165.97;5158638;27;20098;-64
2023/05/12 02:47:03;;;;;;;9.23;4.50;;;;;;;7.38;100.00;99170.06;5158732;27;20055;-58
2023/05/12 02:49:29;;;;;;;14.02;5.47;;;;;;;7.71;100.00;99180.81;5159119;27;20050;-60
2023/05/12 02:51:56;;;;;;;7.78;5.07;;;;;;;8.15;100.00;99207.38;5158455;27;20084;-63
2023/05/12 02:54:22;;;;;;;12.07;5.13;;;;;;;8.45;100.00;99251.56;5158570;27;20327;-63
2023/05/12 02:56:48;;;;;;;8.85;4.97;;;;;;;8.80;100.00;99311.88;5158311;27;20089;-60
2023/05/12 02:59:13;;;;;;;6.78;4.95;;;;;;;9.15;100.00;99349.50;5158534;27;20046;-65
2023/05/12 03:01:39;;;;;;;9.68;5.47;;;;;;;9.49;100.00;99405.50;5158040;27;20416;-64
2023/05/12 03:04:06;;;;;;;10.68;5.03;;;;;;;9.78;100.00;99464.53;5158522;27;20082;-64
2023/05/12 03:06:32;;;;;;;9.52;4.82;;;;;;;10.04;100.00;99542.66;5157880;27;20434;-60
2023/05/12 03:08:58;;;;;;;11.23;5.35;;;;;;;10.38;100.00;99563.13;5158514;27;20051;-63
2023/05/12 03:11:24;;;;;;;7.97;4.82;;;;;;;10.50;100.00;99590.44;5158199;27;20050;-62
2023/05/12 03:13:50;;;;;;;10.13;4.88;;;;;;;10.93;100.00;99634.53;5158259;27;20046;-63
2023/05/12 03:16:17;;;;;;;8.85;4.97;;;;;;;11.22;100.00;99661.50;5158212;27;20054;-59
2023/05/12 03:18:43;;;;;;;9.95;5.28;;;;;;;11.39;100.00;99679.53;5158164;27;20051;-59
2023/05/12 03:21:09;;;;;;;9.73;5.68;;;;;;;11.69;100.00;99704.53;5158149;27;20072;-56
2023/05/12 03:23:36;;;;;;;8.05;4.90;;;;;;;11.99;100.00;99712.25;5157805;27;20051;-57
2023/05/12 03:26:02;;;;;;;14.48;4.70;;;;;;;12.25;100.00;99739.09;5158016;27;20332;-63
2023/05/12 03:28:28;;;;;;;6.80;5.13;;;;;;;12.47;100.00;99743.88;5157914;27;20046;-64
2023/05/12 03:30:54;;;;;;;6.30;4.95;;;;;;;12.81;100.00;99768.06;5158139;27;20145;-64
2023/05/12 03:33:20;;;;;;;7.82;5.00;;;;;;;13.15;100.00;99772.59;5157716;27;20325;-63
2023/05/12 03:35:46;;;;;;;8.40;4.13;;;;;;;13.35;100.00;99791.84;5158004;27;20191;-59
2023/05/12 03:38:12;;;;;;;9.75;4.25;;;;;;;13.63;100.00;99806.09;5157775;27;20055;-56
2023/05/12 03:40:38;;;;;;;14.57;4.30;;;;;;;13.77;100.00;99810.22;5158019;27;20104;-54
2023/05/12 03:43:04;;;;;;;6.93;4.07;;;;;;;13.95;100.00;99818.75;5157563;27;20138;-56
2023/05/12 03:45:30;;;;;;;10.00;4.32;;;;;;;14.17;100.00;99817.91;5160743;27;20056;-57
2023/05/12 03:47:56;;;;;;;8.60;4.97;;;;;;;14.40;100.00;99834.38;5161754;27;20141;-56
2023/05/12 03:50:22;;;;;;;11.68;3.95;;;;;;;14.76;100.00;99832.06;5161367;27;20084;-55
2023/05/12 03:52:48;;;;;;;8.98;4.32;;;;;;;14.95;100.00;99839.38;5161468;27;20508;-59
2023/05/12 03:55:14;;;;;;;5.15;4.38;;;;;;;15.28;97.17;99850.38;5161205;27;20054;-59
2023/05/12 03:57:40;;;;;;;5.70;4.00;;;;;;;15.46;93.76;99858.84;5161463;27;20361;-56
2023/05/12 04:00:08;;;;;;;8.07;4.68;;;;;;;16.00;86.13;99862.84;5161045;27;20432;-55
2023/05/12 04:02:34;;;;;;;13.32;3.60;;;;;;;16.27;79.46;99870.94;5161299;27;20190;-58
2023/05/12 04:05:00;;;;;;;8.13;3.92;;;;;;;16.33;78.80;99869.38;5160929;27;20054;-56
2023/05/12 04:07:26;;;;;;;5.63;3.35;;;;;;;16.52;80.31;99873.03;5161390;27;20064;-56
2023/05/12 04:09:52;;;;;;;7.40;3.78;;;;;;;16.73;77.16;99875.91;5160945;27;20061;-63
2023/05/12 04:12:18;;;;;;;7.32;3.65;;;;;;;17.35;72.83;99883.25;5161268;27;20155;-66
2023/05/12 04:14:44;;;;;;;8.52;4.50;;;;;;;17.48;69.38;99891.97;5161046;27;20078;-66
2023/05/12 04:17:10;;;;;;;7.13;4.03;;;;;;;17.73;70.34;99892.81;5160773;27;20191;-57
2023/05/12 04:19:36;;;;;;;5.97;3.67;;;;;;;17.82;66.46;99889.66;5160918;27;20046;-64
2023/05/12 04:22:02;;;;;;;5.85;3.25;;;;;;;18.20;66.02;99896.38;5160816;27;20060;-60
2023/05/12 04:24:28;;;;;;;7.32;3.22;;;;;;;18.17;66.29;99894.41;5160781;27;20050;-55
2023/05/12 04:26:56;;;;;;;7.07;3.22;;;;;;;18.73;63.77;99903.03;5160519;27;20275;-55
2023/05/12 04:29:22;;;;;;;6.25;2.83;;;;;;;18.66;63.75;99903.00;5160917;27;20043;-60
2023/05/12 04:31:48;;;;;;;5.40;3.13;;;;;;;19.18;61.21;99914.31;5160606;27;20046;-64
2023/05/12 04:34:14;;;;;;;3.53;3.22;;;;;;;19.17;60.76;99910.75;5160957;27;20046;-66
2023/05/12 04:36:40;;;;;;;11.32;3.83;;;;;;;19.78;59.88;99906.81;5160344;27;20133;-66
2023/05/12 04:39:06;;;;;;;6.18;3.60;;;;;;;19.68;59.03;99912.06;5160792;27;20107;-64
2023/05/12 04:41:32;;;;;;;7.32;2.90;;;;;;;20.10;58.73;99917.69;5160121;27;20057;-64
2023/05/12 04:43:58;;;;;;;5.38;3.10;;;;;;;20.08;57.15;99911.75;5160304;27;20047;-61
2023/05/12 04:46:24;;;;;;;5.93;3.55;;;;;;;20.80;56.92;99915.41;5160566;27;20047;-59
2023/05/12 04:48:50;;;;;;;6.70;2.90;;;;;;;20.91;56.05;99912.47;5160303;27;20050;-57
2023/05/12 04:51:16;;;;;;;8.38;2.60;;;;;;;21.00;56.28;99912.00;5160142;27;20056;-61
2023/05/12 04:53:42;;;;;;;10.35;3.85;;;;;;;20.58;55.48;99912.06;5160067;27;20130;-56
2023/05/12 04:56:08;;;;;;;8.23;3.28;;;;;;;20.93;56.14;99921.22;5159772;27;20057;-60
2023/05/12 04:58:34;;;;;;;4.18;2.97;;;;;;;21.44;54.92;99913.78;5160358;27;20078;-59
2023/05/12 05:01:00;;;;;;;7.05;3.65;;;;;;;21.78;55.00;99918.47;5160164;27;20043;-65
2023/05/12 05:03:26;;;;;;;8.48;3.05;;;;;;;21.90;54.57;99911.50;5159620;27;20138;-56
2023/05/12 05:05:52;;;;;;;11.98;3.50;;;;;;;21.87;53.70;99918.72;5160380;27;20046;-56
2023/05/12 05:08:19;;;;;;;11.27;3.33;;;;;;;21.67;55.36;99915.84;5160136;27;20078;-59
2023/05/12 05:10:45;;;;;;;7.13;2.88;;;;;;;21.70;54.43;99912.22;5160076;27;20435;-60
2023/05/12 05:13:10;;;;;;;5.82;2.40;;;;;;;22.24;53.31;99922.53;5159593;27;20042;-61
2023/05/12 05:15:36;;;;;;;15.52;2.75;;;;;;;22.75;52.68;99928.75;5160158;27;20396;-63
2023/05/12 05:18:04;;;;;;;17.13;3.90;;;;;;;22.98;52.89;99925.91;5159902;27;20206;-63
2023/05/12 05:20:31;;;;;;;11.32;3.25;;;;;;;22.84;51.53;99931.75;5159748;27;20119;-60
2023/05/12 05:22:57;;;;;;;4.57;2.50;;;;;;;22.79;50.01;99926.66;5159937;27;20062;-57
2023/05/12 05:25:25;;;;;;;6.80;3.10;;;;;;;23.00;50.02;99928.28;5159665;27;20046;-61
2023/05/12 05:27:51;;;;;;;7.57;2.63;;;;;;;22.64;50.30;99923.38;5159853;27;20042;-61
2023/05/12 05:30:18;;;;;;;6.93;3.25;;;;;;;22.86;50.00;99932.13;5159583;27;20047;-63
2023/05/12 05:32:44;;;;;;;7.13;3.42;;;;;;;22.70;49.75;99932.06;5159815;27;20081;-54
2023/05/12 05:35:10;;;;;;;7.07;3.35;;;;;;;23.05;49.75;99924.19;5159228;27;20051;-58
2023/05/12 05:37:36;;;;;;;3.33;2.65;;;;;;;23.17;50.47;99923.53;5159681;27;20468;-59
2023/05/12 05:40:03;;;;;;;7.68;2.95;;;;;;;23.24;49.22;99917.78;5159353;27;20053;-63
2023/05/12 05:42:30;;;;;;;6.75;3.03;;;;;;;23.97;49.49;99926.13;5159177;27;20086;-57
2023/05/12 05:44:56;;;;;;;6.03;2.33;;;;;;;24.31;48.06;99922.84;5159448;27;20047;-58
2023/05/12 05:47:21;;;;;;;5.93;2.80;;;;;;;24.40;48.14;99926.63;5159341;27;20331;-56
2023/05/12 05:49:47;;;;;;;4.68;2.80;;;;;;;24.77;48.04;99920.84;5159370;27;20102;-59
2023/05/12 05:52:13;;;;;;;7.95;2.70;;;;;;;24.99;46.66;99926.59;5159220;27;20313;-58
2023/05/12 05:54:39;;;;;;;7.35;2.95;;;;;;;25.23;46.92;99915.91;5159530;27;20107;-60
2023/05/12 05:57:05;;;;;;;3.83;2.60;;;;;;;24.59;47.01;99915.69;5158971;27;20183;-61
2023/05/12 05:59:32;;;;;;;5.05;2.67;;;;;;;23.97;47.35;99924.09;5159225;27;20187;-62
2023/05/12 06:01:58;;;;;;;10.30;2.88;;;;;;;23.07;48.20;99921.75;5158846;27;20069;-63
2023/05/12 06:04:24;;;;;;;12.32;2.88;;;;;;;23.71;47.88;99914.72;5159118;27;20046;-59
2023/05/12 06:06:50;;;;;;;5.75;2.50;;;;;;;24.78;46.95;99914.75;5157769;27;20193;-54
2023/05/12 06:09:16;;;;;;;10.70;2.53;;;;;;;24.34;47.17;99913.56;5158396;27;20043;-55
2023/05/12 06:11:41;;;;;;;10.55;2.50;;;;;;;25.17;46.74;99912.09;5158477;27;20439;-54
2023/05/12 06:14:08;;;;;;;4.00;2.40;;;;;;;25.85;45.80;99913.56;5158352;27;20095;-57
2023/05/12 06:16:34;;;;;;;6.63;2.28;;;;;;;25.68;46.67;99917.72;5158531;27;20375;-60
2023/05/12 06:19:00;;;;;;;21.80;2.65;;;;;;;25.24;45.49;99923.09;5158407;27;20129;-60
2023/05/12 06:21:26;;;;;;;8.45;2.80;;;;;;;24.49;46.43;99916.78;5158480;27;20055;-59
2023/05/12 06:23:53;;;;;;;6.95;2.67;;;;;;;25.45;46.48;99921.66;5158382;27;20043;-58
2023/05/12 06:26:19;;;;;;;12.88;3.33;;;;;;;25.86;46.23;99917.97;5158462;27;20316;-60
2023/05/12 06:28:45;;;;;;;5.85;2.20;;;;;;;26.19;45.32;99918.47;5157969;27;20086;-57
2023/05/12 06:31:11;;;;;;;7.22;2.50;;;;;;;26.59;43.98;99920.72;5158381;27;20096;-56
2023/05/12 06:33:38;;;;;;;4.60;2.35;;;;;;;26.33;44.43;99917.19;5158019;27;20142;-56
2023/05/12 06:36:04;;;;;;;9.90;2.75;;;;;;;25.90;44.24;99915.03;5158202;27;20347;-57
2023/05/12 06:38:30;;;;;;;9.57;2.53;;;;;;;26.57;44.46;99919.59;5157747;27;20046;-57
2023/05/12 06:40:56;;;;;;;9.00;2.28;;;;;;;26.71;43.83;99913.44;5158313;27;20437;-56
2023/05/12 06:43:22;;;;;;;5.55;2.22;;;;;;;27.49;42.65;99917.34;5157673;27;20047;-56
2023/05/12 06:45:48;;;;;;;6.20;2.50;;;;;;;26.65;44.87;99918.88;5157630;27;20146;-54
2023/05/12 06:48:14;;;;;;;10.60;2.33;;;;;;;26.91;43.87;99918.75;5157836;27;20057;-59
2023/05/12 06:50:41;;;;;;;5.93;2.33;;;;;;;25.98;44.02;99910.75;5157958;27;20082;-58
2023/05/12 06:53:08;;;;;;;6.20;2.35;;;;;;;26.33;44.15;99913.59;5158000;27;20074;-61
2023/05/12 06:55:33;;;;;;;4.50;2.28;;;;;;;26.46;43.16;99908.72;5157894;27;20335;-59
2023/05/12 06:57:59;;;;;;;6.53;2.35;;;;;;;26.65;43.39;99913.25;5158320;27;20092;-57
2023/05/12 07:00:25;;;;;;;11.00;2.60;;;;;;;27.09;43.41;99906.81;5157773;27;20050;-56
2023/05/12 07:02:52;;;;;;;7.10;2.22;;;;;;;26.95;43.21;99911.72;5158038;27;20396;-58
2023/05/12 07:05:18;;;;;;;9.88;2.88;;;;;;;26.23;44.34;99916.31;5157524;27;20404;-57
2023/05/12 07:07:44;;;;;;;6.05;2.33;;;;;;;26.92;42.74;99912.66;5158067;27;20542;-57
2023/05/12 07:10:11;;;;;;;4.72;2.25;;;;;;;27.22;42.16;99904.72;5157492;27;20137;-56
2023/05/12 07:12:37;;;;;;;6.15;2.45;;;;;;;26.82;42.71;99908.19;5157655;27;20050;-60
2023/05/12 07:15:04;;;;;;;6.13;2.10;;;;;;;26.66;41.67;99914.06;5157873;27;20081;-54
2023/05/12 07:17:29;;;;;;;5.07;2.20;;;;;;;26.66;42.18;99912.03;5157846;27;20391;-59
2023/05/12 07:19:55;;;;;;;11.57;2.50;;;;;;;27.19;41.73;99909.25;5161220;27;20051;-61
2023/05/12 07:22:22;;;;;;;6.40;2.30;;;;;;;27.69;41.92;99901.66;5161092;27;20060;-61
2023/05/12 07:24:49;;;;;;;5.57;2.20;;;;;;;27.30;41.77;99913.69;5161499;27;20050;-55
2023/05/12 07:27:15;;;;;;;9.05;2.00;;;;;;;28.35;41.47;99908.97;5161206;27;20055;-62
2023/05/12 07:29:41;;;;;;;6.40;2.17;;;;;;;28.21;41.44;99906.78;5161582;27;20139;-62
2023/05/12 07:32:07;;;;;;;10.25;2.42;;;;;;;27.89;41.95;99904.09;5160944;27;20054;-59
2023/05/12 07:34:33;;;;;;;9.70;2.40;;;;;;;27.90;41.97;99910.50;5161683;27;20195;-64
2023/05/12 07:37:01;;;;;;;9.40;2.17;;;;;;;27.64;41.42;99909.91;5161092;27;20208;-61
2023/05/12 07:39:27;;;;;;;10.02;2.35;;;;;;;26.92;42.11;99900.63;5161462;27;20107;-58
2023/05/12 07:41:54;;;;;;;8.73;2.20;;;;;;;28.09;42.38;99909.28;5161310;27;20051;-59
2023/05/12 07:44:20;;;;;;;12.93;2.30;;;;;;;27.82;41.19;99907.16;5161155;27;20061;-63
2023/05/12 07:46:46;;;;;;;6.03;1.90;;;;;;;27.62;41.12;99907.59;5161013;27;20411;-59
2023/05/12 07:49:12;;;;;;;11.65;2.33;;;;;;;28.36;40.40;99905.72;5161071;27;20050;-62
2023/05/12 07:51:38;;;;;;;9.35;2.22;;;;;;;28.38;41.54;99903.19;5161287;27;20154;-63
2023/05/12 07:54:05;;;;;;;6.30;2.30;;;;;;;28.60;41.03;99907.94;5161078;27;20051;-61
2023/05/12 07:56:31;;;;;;;5.95;2.25;;;;;;;28.03;40.15;99899.88;5161300;27;20046;-60
2023/05/12 07:58:57;;;;;;;7.15;2.10;;;;;;;28.37;40.54;99896.00;5160774;27;20137;-59
2023/05/12 08:01:23;;;;;;;7.03;1.77;;;;;;;28.05;40.14;99896.59;5160967;27;20103;-59
2023/05/12 08:03:50;;;;;;;7.05;2.15;;;;;;;27.18;41.17;99901.25;5160804;27;20050;-63
2023/05/12 08:06:16;;;;;;;8.20;2.15;;;;;;;26.66;41.62;99894.38;5161203;27;20046;-61
2023/05/12 08:08:42;;;;;;;7.82;1.90;;;;;;;26.22;41.71;99895.06;5160620;27;20441;-56
2023/05/12 08:11:08;;;;;;;3.78;2.10;;;;;;;27.40;41.81;99892.78;5160703;27;20375;-58
2023/05/12 08:13:35;;;;;;;7.15;2.10;;;;;;;27.90;41.05;99897.19;5160683;27;20046;-59
2023/05/12 08:16:02;;;;;;;7.22;2.40;;;;;;;28.22;41.28;99895.03;5160458;27;20408;-60
2023/05/12 08:18:28;;;;;;;8.88;2.05;;;;;;;27.96;41.08;99899.38;5160794;27;20046;-59
2023/05/12 08:20:54;;;;;;;5.15;2.22;;;;;;;27.49;41.36;99894.84;5160176;27;20061;-57
2023/05/12 08:23:20;;;;;;;5.05;2.25;;;;;;;27.10;41.58;99877.44;5160508;27;20485;-62
2023/05/12 08:25:47;;;;;;;4.45;2.40;;;;;;;26.20;41.92;99879.91;5160340;27;20046;-62
2023/05/12 08:28:13;;;;;;;6.00;2.00;;;;;;;26.97;40.81;99888.78;5160949;27;20042;-57
2023/05/12 08:30:39;;;;;;;8.98;2.70;;;;;;;27.82;41.82;99883.84;5159479;27;20055;-62
2023/05/12 08:33:06;;;;;;;6.65;2.00;;;;;;;28.26;41.63;99884.41;5160613;27;20106;-56
2023/05/12 08:35:32;;;;;;;6.70;2.20;;;;;;;28.54;40.69;99879.56;5160040;27;20061;-55
2023/05/12 08:37:58;;;;;;;16.85;2.42;;;;;;;28.09;40.82;99878.28;5160541;27;20047;-59
2023/05/12 08:40:25;;;;;;;12.32;2.92;;;;;;;27.39;42.71;99877.13;5160297;27;20043;-64
2023/05/12 08:43:04;;;;;;;4.65;2.38;;;;;;;27.69;42.36;99867.84;5160060;27;20540;-64
2023/05/12 08:45:31;;;;;;;4.93;2.40;;;;;;;26.94;42.10;99867.97;5160300;27;20058;-55
2023/05/12 08:47:58;;;;;;;17.60;2.72;;;;;;;27.99;43.28;99862.63;5160046;27;20129;-60
2023/05/12 08:50:28;;;;;;;12.55;2.30;;;;;;;28.21;41.68;99875.78;5160147;27;20057;-56
2023/05/12 08:52:56;;;;;;;6.60;2.03;;;;;;;26.32;42.29;99867.81;5159910;27;20055;-62
2023/05/12 08:55:23;;;;;;;11.50;2.47;;;;;;;28.18;42.00;99866.22;5160304;27;20141;-58
2023/05/12 08:57:49;;;;;;;8.05;2.58;;;;;;;29.10;41.10;99863.34;5158696;27;20412;-57
2023/05/12 09:00:16;;;;;;;12.90;2.90;;;;;;;28.74;41.32;99867.78;5159759;27;20391;-63
2023/05/12 09:02:43;;;;;;;7.68;2.28;;;;;;;28.63;40.85;99861.06;5158062;27;20365;-61
2023/05/12 09:05:09;;;;;;;7.68;2.30;;;;;;;27.30;40.42;99852.53;5158203;27;20069;-59
2023/05/12 09:07:38;;;;;;;5.20;2.10;;;;;;;26.87;40.71;99848.56;5159616;27;20061;-59
2023/05/12 09:10:10;;;;;;;23.88;2.70;;;;;;;27.08;41.29;99846.94;5159626;27;20137;-58
2023/05/12 09:12:37;;;;;;;6.60;2.10;;;;;;;27.47;40.56;99855.88;5159492;27;20121;-57
2023/05/12 09:15:06;;;;;;;7.07;2.55;;;;;;;27.99;40.87;99854.16;5159523;27;20137;-60
2023/05/12 09:17:32;;;;;;;3.60;2.13;;;;;;;28.48;40.97;99847.59;5159675;27;20082;-59
2023/05/12 09:19:58;;;;;;;5.45;2.17;;;;;;;28.91;39.19;99842.81;5159325;27;20187;-61
2023/05/12 09:22:28;;;;;;;6.65;2.83;;;;;;;28.30;40.31;99833.50;5160096;27;20366;-63
2023/05/12 09:24:55;;;;;;;4.85;2.40;;;;;;;28.69;40.64;99843.03;5160760;27;20448;-63
2023/05/12 09:27:24;;;;;;;5.78;2.58;;;;;;;27.95;40.65;99839.41;5160924;27;20042;-60
2023/05/12 09:29:50;;;;;;;8.88;2.40;;;;;;;28.67;40.32;99834.25;5160192;27;20107;-60
2023/05/12 09:32:16;;;;;;;7.45;2.30;;;;;;;28.98;39.80;99836.84;5160431;27;20062;-58
2023/05/12 09:34:42;;;;;;;7.75;2.35;;;;;;;27.59;41.56;99835.28;5160273;27;20125;-61
2023/05/12 09:37:09;;;;;;;9.40;2.53;;;;;;;26.48;41.46;99833.13;5160103;27;20061;-62
2023/05/12 09:39:35;;;;;;;3.35;2.30;;;;;;;25.32;41.97;99829.03;5160305;27;20149;-60
2023/05/12 09:42:02;;;;;;;4.53;2.47;;;;;;;24.33;43.70;99831.50;5158149;27;20057;-62
2023/05/12 09:44:29;;;;;;;4.80;2.60;;;;;;;23.60;43.80;99836.59;5159756;27;20135;-61
2023/05/12 09:46:54;;;;;;;5.68;2.30;;;;;;;23.75;44.44;99830.66;5159076;27;20078;-56
2023/05/12 09:49:24;;;;;;;6.57;2.70;;;;;;;22.93;43.74;99833.38;5159108;27;20311;-57
2023/05/12 09:51:51;;;;;;;6.93;2.58;;;;;;;22.45;44.46;99820.75;5158751;27;20439;-61
2023/05/12 09:54:23;;;;;;;4.72;2.78;;;;;;;23.35;44.13;99820.41;5159409;27;20077;-56
2023/05/12 09:56:52;;;;;;;7.05;2.47;;;;;;;23.45;43.94;99813.75;5158781;27;20089;-53
2023/05/12 09:59:20;;;;;;;1.80;1.70;;;;;;;23.78;42.75;99813.78;5159014;27;20055;-59
2023/05/12 10:01:46;;;;;;;2.22;1.80;;;;;;;23.54;43.73;99815.94;5158890;27;20305;-62
2023/05/12 10:04:12;;;;;;;8.93;2.65;;;;;;;23.83;45.10;99820.88;5158623;27;20043;-61
2023/05/12 10:06:41;;;;;;;7.85;1.70;;;;;;;22.63;45.90;99806.44;5158605;27;20046;-60
2023/05/12 10:09:14;;;;;;;6.20;2.17;;;;;;;22.52;46.05;99809.44;5158450;27;20051;-59
2023/05/12 10:11:40;;;;;;;6.07;2.17;;;;;;;22.49;46.14;99824.25;5159348;27;20055;-64
2023/05/12 10:14:08;;;;;;;9.43;2.35;;;;;;;22.59;47.05;99814.88;5159957;27;20046;-64
2023/05/12 10:16:35;;;;;;;6.63;2.00;;;;;;;22.28;47.99;99817.09;5160577;27;20051;-59
2023/05/12 10:19:02;;;;;;;3.00;1.83;;;;;;;22.53;46.42;99819.41;5159487;27;20416;-64
2023/05/12 10:21:29;;;;;;;3.33;2.08;;;;;;;22.22;46.72;99819.59;5158930;27;20089;-64
2023/05/12 10:23:57;;;;;;;5.75;2.35;;;;;;;22.15;46.55;99818.91;5158630;27;20061;-65
2023/05/12 10:26:23;;;;;;;3.88;2.10;;;;;;;22.12;46.73;99823.34;5158497;27;20054;-64
2023/05/12 10:28:51;;;;;;;3.25;2.20;;;;;;;22.39;46.51;99822.47;5158684;27;20145;-59
2023/05/12 10:31:18;;;;;;;4.85;2.00;;;;;;;22.44;45.82;99816.41;5158937;27;20065;-61
2023/05/12 10:33:55;;;;;;;9.75;2.20;;;;;;;22.94;46.04;99812.56;5158742;27;20050;-58
2023/05/12 10:36:21;;;;;;;8.55;3.88;;;;;;;22.98;46.18;99814.06;5158245;27;20054;-58
2023/05/12 10:38:48;;;;;;;5.28;2.05;;;;;;;23.33;45.55;99808.09;5158810;27;20050;-68
2023/05/12 10:41:15;;;;;;;5.85;2.25;;;;;;;23.22;45.05;99813.91;5158413;27;20071;-57
2023/05/12 10:43:44;;;;;;;3.55;2.38;;;;;;;24.04;45.18;99809.09;5158647;27;20107;-63
2023/05/12 10:46:16;;;;;;;3.72;2.13;;;;;;;25.09;45.83;99805.69;5158001;27;20051;-64
2023/05/12 10:48:52;;;;;;;7.47;2.13;;;;;;;24.76;44.88;99807.88;5158222;27;20061;-53
2023/05/12 10:51:20;;;;;;;8.30;2.90;;;;;;;24.59;44.07;99803.56;5158419;27;20066;-64
2023/05/12 10:53:50;;;;;;;6.18;2.50;;;;;;;24.40;44.75;99800.53;5158063;27;20047;-59
2023/05/12 10:56:21;;;;;;;13.25;2.63;;;;;;;24.83;44.02;99795.69;5158276;27;20146;-56
2023/05/12 10:59:10;;;;;;;5.30;2.47;;;;;;;24.22;43.34;99800.19;5158079;27;20046;-55
2023/05/12 11:01:36;;;;;;;8.48;2.60;;;;;;;24.66;45.04;99800.59;5158300;27;20137;-64
2023/05/12 11:04:10;;;;;;;7.15;2.58;;;;;;;24.37;43.46;99800.59;5157979;27;20054;-58
2023/05/12 11:06:38;;;;;;;13.65;2.45;;;;;;;23.89;44.16;99797.50;5157994;27;20134;-59
2023/05/12 11:09:04;;;;;;;6.80;2.50;;;;;;;24.41;44.64;99790.88;5157856;27;20061;-61
2023/05/12 11:11:31;;;;;;;3.33;2.65;;;;;;;24.48;43.69;99791.91;5158095;27;20055;-59
2023/05/12 11:13:57;;;;;;;8.77;2.75;;;;;;;23.75;44.47;99783.06;5158276;27;20075;-68
2023/05/12 11:16:23;;;;;;;6.00;2.00;;;;;;;23.87;44.76;99791.53;5158003;27;20142;-62
2023/05/12 11:19:00;;;;;;;6.30;2.20;;;;;;;24.10;43.99;99793.31;5158380;27;20089;-69
2023/05/12 11:21:27;;;;;;;7.93;2.90;;;;;;;24.37;43.62;99780.97;5157546;27;20047;-63
2023/05/12 11:23:54;;;;;;;7.60;2.28;;;;;;;23.74;42.76;99779.50;5157592;27;20051;-57
2023/05/12 11:26:20;;;;;;;4.43;1.90;;;;;;;23.11;43.36;99782.63;5157522;27;20452;-59
2023/05/12 11:28:46;;;;;;;8.10;2.70;;;;;;;23.37;43.21;99775.22;5157910;27;20043;-57